Main page
METAR-TAF:

METAR-TAF

Airports :

San Sebastián Airport

San Sebastián, Spain

latitude: 43-21N, longitude: 001-48W, elevation: 5 m

Current weather observation

The report was made 28 minutes ago, at 18:00 UTC
Wind 10 kt from the South/Southwest
Temperature 14°C
Humidity 63%
Pressure 1013 hPa
Visibility 10 km or more
no clouds below 1500 m and no cumulonimbus

METAR: LESO 271800Z 21010KT CAVOK 14/07 Q1013

Time: 19:28 (18:28 UTC)

Forecast

The report was made 1 hour and 28 minutes ago, at 17:00 UTC
Forecast valid from 27 at 18 UTC to 28 at 18 UTC
Wind 9 kt from the West/Southwest
Visibility 10 km or more
Broken clouds at a height of 5000 ft
Temporary
from 27 at 18 UTC to 28 at 03 UTC
Wind 15 kt from the West/Southwest with gusts up to 25 kt
Probability 40% :
Temporary
from 27 at 21 UTC to 28 at 03 UTC
Visibility: 3000 m
light rain, mist

TAF: LESO 271700Z 2718/2818 24009KT 9999 BKN050 TX14/2814Z TN09/2806Z TEMPO 2718/2803 24015G25KT PROB40 TEMPO 2721/2803 3000 -RA BR

Weather observations and forecasts of more than 4000 airports (METAR and TAF reports).

The available stations are represented by yellow and red dots on the map.

Hover mouse over dot to see the name of the station.

Then click to see weather observations and forecasts.

To change the map : click on the green buttons with a black cross to zoom in, on the green button with a dash to zoom out, or on the green arrows for adjacent maps.


METAR-TAF: